sensor_id;sensor_type;location;lat;lon;timestamp;P1;durP1;ratioP1;P2;durP2;ratioP2
23470;SDS011;11908;50.806;4.424;2022-08-19T00:00:06;11.27;;;8.98;;
23470;SDS011;11908;50.806;4.424;2022-08-19T00:02:34;9.73;;;8.82;;
23470;SDS011;11908;50.806;4.424;2022-08-19T00:05:00;11.30;;;9.27;;
23470;SDS011;11908;50.806;4.424;2022-08-19T00:07:26;10.27;;;9.27;;
23470;SDS011;11908;50.806;4.424;2022-08-19T00:09:52;10.18;;;9.23;;
23470;SDS011;11908;50.806;4.424;2022-08-19T00:12:18;10.90;;;9.35;;
23470;SDS011;11908;50.806;4.424;2022-08-19T00:14:44;10.05;;;9.05;;
23470;SDS011;11908;50.806;4.424;2022-08-19T00:17:10;10.27;;;9.25;;
23470;SDS011;11908;50.806;4.424;2022-08-19T00:19:36;22.60;;;16.77;;
23470;SDS011;11908;50.806;4.424;2022-08-19T00:22:02;25.90;;;20.27;;
23470;SDS011;11908;50.806;4.424;2022-08-19T00:24:30;32.83;;;22.30;;
23470;SDS011;11908;50.806;4.424;2022-08-19T00:26:56;29.75;;;22.95;;
23470;SDS011;11908;50.806;4.424;2022-08-19T00:29:23;33.42;;;22.77;;
23470;SDS011;11908;50.806;4.424;2022-08-19T00:31:49;20.55;;;15.60;;
23470;SDS011;11908;50.806;4.424;2022-08-19T00:34:19;15.57;;;13.45;;
23470;SDS011;11908;50.806;4.424;2022-08-19T00:36:46;16.27;;;11.55;;
23470;SDS011;11908;50.806;4.424;2022-08-19T00:39:12;14.70;;;12.80;;
23470;SDS011;11908;50.806;4.424;2022-08-19T00:41:38;24.02;;;18.75;;
23470;SDS011;11908;50.806;4.424;2022-08-19T00:46:32;53.85;;;34.78;;
23470;SDS011;11908;50.806;4.424;2022-08-19T00:49:00;55.30;;;35.53;;
23470;SDS011;11908;50.806;4.424;2022-08-19T00:51:31;56.72;;;37.00;;
23470;SDS011;11908;50.806;4.424;2022-08-19T00:53:57;50.45;;;33.63;;
23470;SDS011;11908;50.806;4.424;2022-08-19T00:56:25;49.15;;;34.97;;
23470;SDS011;11908;50.806;4.424;2022-08-19T00:58:52;49.50;;;32.70;;
23470;SDS011;11908;50.806;4.424;2022-08-19T01:01:19;54.08;;;35.58;;
23470;SDS011;11908;50.806;4.424;2022-08-19T01:03:45;44.10;;;31.95;;
23470;SDS011;11908;50.806;4.424;2022-08-19T01:06:11;48.83;;;31.17;;
23470;SDS011;11908;50.806;4.424;2022-08-19T01:08:36;33.33;;;22.70;;
23470;SDS011;11908;50.806;4.424;2022-08-19T01:11:02;29.95;;;20.55;;
23470;SDS011;11908;50.806;4.424;2022-08-19T01:13:30;25.77;;;18.60;;
23470;SDS011;11908;50.806;4.424;2022-08-19T01:15:59;23.13;;;18.30;;
23470;SDS011;11908;50.806;4.424;2022-08-19T01:18:28;23.95;;;18.30;;
23470;SDS011;11908;50.806;4.424;2022-08-19T01:20:56;22.25;;;18.77;;
23470;SDS011;11908;50.806;4.424;2022-08-19T01:23:26;22.98;;;18.58;;
23470;SDS011;11908;50.806;4.424;2022-08-19T01:26:08;26.08;;;19.17;;
23470;SDS011;11908;50.806;4.424;2022-08-19T01:28:38;24.38;;;18.77;;
23470;SDS011;11908;50.806;4.424;2022-08-19T01:31:06;22.80;;;19.13;;
23470;SDS011;11908;50.806;4.424;2022-08-19T01:33:37;22.88;;;18.92;;
23470;SDS011;11908;50.806;4.424;2022-08-19T01:36:04;31.95;;;21.88;;
23470;SDS011;11908;50.806;4.424;2022-08-19T01:38:38;31.48;;;23.25;;
23470;SDS011;11908;50.806;4.424;2022-08-19T01:41:05;30.48;;;22.33;;
23470;SDS011;11908;50.806;4.424;2022-08-19T01:43:31;31.23;;;21.15;;
23470;SDS011;11908;50.806;4.424;2022-08-19T01:45:57;32.78;;;24.65;;
23470;SDS011;11908;50.806;4.424;2022-08-19T01:48:23;31.13;;;23.98;;
23470;SDS011;11908;50.806;4.424;2022-08-19T01:50:49;34.95;;;24.77;;
23470;SDS011;11908;50.806;4.424;2022-08-19T01:53:15;34.45;;;24.88;;
23470;SDS011;11908;50.806;4.424;2022-08-19T01:55:41;34.55;;;26.55;;
23470;SDS011;11908;50.806;4.424;2022-08-19T01:58:12;37.67;;;27.23;;
23470;SDS011;11908;50.806;4.424;2022-08-19T02:00:41;36.15;;;27.98;;
23470;SDS011;11908;50.806;4.424;2022-08-19T02:03:08;35.75;;;28.48;;
23470;SDS011;11908;50.806;4.424;2022-08-19T02:05:36;39.72;;;28.30;;
23470;SDS011;11908;50.806;4.424;2022-08-19T02:08:02;37.13;;;26.52;;
23470;SDS011;11908;50.806;4.424;2022-08-19T02:10:29;34.90;;;25.65;;
23470;SDS011;11908;50.806;4.424;2022-08-19T02:12:54;35.33;;;26.40;;
23470;SDS011;11908;50.806;4.424;2022-08-19T02:15:20;34.75;;;27.27;;
23470;SDS011;11908;50.806;4.424;2022-08-19T02:17:47;37.55;;;27.10;;
23470;SDS011;11908;50.806;4.424;2022-08-19T02:20:13;39.75;;;27.02;;
23470;SDS011;11908;50.806;4.424;2022-08-19T02:22:40;35.80;;;27.73;;
23470;SDS011;11908;50.806;4.424;2022-08-19T02:25:12;35.72;;;27.33;;
23470;SDS011;11908;50.806;4.424;2022-08-19T02:27:39;39.28;;;29.05;;
23470;SDS011;11908;50.806;4.424;2022-08-19T02:30:06;38.63;;;29.80;;
23470;SDS011;11908;50.806;4.424;2022-08-19T02:32:35;44.95;;;30.10;;
23470;SDS011;11908;50.806;4.424;2022-08-19T02:35:01;44.08;;;30.58;;
23470;SDS011;11908;50.806;4.424;2022-08-19T02:37:26;38.33;;;29.25;;
23470;SDS011;11908;50.806;4.424;2022-08-19T02:40:11;40.72;;;29.30;;
23470;SDS011;11908;50.806;4.424;2022-08-19T02:42:37;36.60;;;27.25;;
23470;SDS011;11908;50.806;4.424;2022-08-19T02:45:03;38.75;;;28.23;;
23470;SDS011;11908;50.806;4.424;2022-08-19T02:47:29;40.88;;;27.52;;
23470;SDS011;11908;50.806;4.424;2022-08-19T02:49:55;36.83;;;28.10;;
23470;SDS011;11908;50.806;4.424;2022-08-19T02:52:21;39.38;;;26.98;;
23470;SDS011;11908;50.806;4.424;2022-08-19T02:54:48;36.20;;;26.08;;
23470;SDS011;11908;50.806;4.424;2022-08-19T02:57:14;36.95;;;27.23;;
23470;SDS011;11908;50.806;4.424;2022-08-19T02:59:40;39.33;;;27.52;;
23470;SDS011;11908;50.806;4.424;2022-08-19T03:02:05;38.78;;;27.40;;
23470;SDS011;11908;50.806;4.424;2022-08-19T03:04:31;33.53;;;25.55;;
23470;SDS011;11908;50.806;4.424;2022-08-19T03:06:57;36.85;;;27.00;;
23470;SDS011;11908;50.806;4.424;2022-08-19T03:09:22;37.65;;;26.63;;
23470;SDS011;11908;50.806;4.424;2022-08-19T03:11:48;33.85;;;24.90;;
23470;SDS011;11908;50.806;4.424;2022-08-19T03:14:15;37.35;;;25.58;;
23470;SDS011;11908;50.806;4.424;2022-08-19T03:16:43;35.47;;;25.67;;
23470;SDS011;11908;50.806;4.424;2022-08-19T03:19:10;40.88;;;25.58;;
23470;SDS011;11908;50.806;4.424;2022-08-19T03:21:36;34.25;;;23.80;;
23470;SDS011;11908;50.806;4.424;2022-08-19T03:24:02;35.55;;;23.40;;
23470;SDS011;11908;50.806;4.424;2022-08-19T03:26:30;34.90;;;25.10;;
23470;SDS011;11908;50.806;4.424;2022-08-19T03:28:56;35.38;;;23.50;;
23470;SDS011;11908;50.806;4.424;2022-08-19T03:31:22;37.10;;;25.27;;
23470;SDS011;11908;50.806;4.424;2022-08-19T03:33:49;32.95;;;23.50;;
23470;SDS011;11908;50.806;4.424;2022-08-19T03:36:21;33.42;;;23.58;;
23470;SDS011;11908;50.806;4.424;2022-08-19T03:38:52;36.13;;;24.58;;
23470;SDS011;11908;50.806;4.424;2022-08-19T03:41:23;37.17;;;25.17;;
23470;SDS011;11908;50.806;4.424;2022-08-19T03:43:55;34.47;;;23.88;;
23470;SDS011;11908;50.806;4.424;2022-08-19T03:46:22;34.67;;;23.90;;
23470;SDS011;11908;50.806;4.424;2022-08-19T03:48:53;31.55;;;24.02;;
23470;SDS011;11908;50.806;4.424;2022-08-19T03:51:26;32.58;;;22.95;;
23470;SDS011;11908;50.806;4.424;2022-08-19T03:53:55;37.53;;;23.70;;
23470;SDS011;11908;50.806;4.424;2022-08-19T03:56:21;30.63;;;22.70;;
23470;SDS011;11908;50.806;4.424;2022-08-19T03:58:47;36.25;;;23.67;;
23470;SDS011;11908;50.806;4.424;2022-08-19T04:01:15;32.80;;;23.23;;
23470;SDS011;11908;50.806;4.424;2022-08-19T04:03:43;36.78;;;23.42;;
23470;SDS011;11908;50.806;4.424;2022-08-19T04:06:16;32.33;;;22.92;;
23470;SDS011;11908;50.806;4.424;2022-08-19T04:08:45;36.25;;;22.63;;
23470;SDS011;11908;50.806;4.424;2022-08-19T04:11:18;32.10;;;23.90;;
23470;SDS011;11908;50.806;4.424;2022-08-19T04:13:49;37.42;;;23.92;;
23470;SDS011;11908;50.806;4.424;2022-08-19T04:16:19;38.95;;;25.10;;
23470;SDS011;11908;50.806;4.424;2022-08-19T04:18:46;42.80;;;26.00;;
23470;SDS011;11908;50.806;4.424;2022-08-19T04:21:20;37.97;;;24.15;;
23470;SDS011;11908;50.806;4.424;2022-08-19T04:23:47;40.40;;;25.00;;
23470;SDS011;11908;50.806;4.424;2022-08-19T04:26:19;46.72;;;25.23;;
23470;SDS011;11908;50.806;4.424;2022-08-19T04:28:46;43.30;;;26.15;;
23470;SDS011;11908;50.806;4.424;2022-08-19T04:31:17;45.05;;;24.17;;
23470;SDS011;11908;50.806;4.424;2022-08-19T04:33:45;39.13;;;23.92;;
23470;SDS011;11908;50.806;4.424;2022-08-19T04:36:17;43.83;;;24.92;;
23470;SDS011;11908;50.806;4.424;2022-08-19T04:38:45;39.63;;;24.27;;
23470;SDS011;11908;50.806;4.424;2022-08-19T04:41:15;37.92;;;23.85;;
23470;SDS011;11908;50.806;4.424;2022-08-19T04:44:00;38.00;;;24.60;;
23470;SDS011;11908;50.806;4.424;2022-08-19T04:46:27;42.72;;;24.10;;
23470;SDS011;11908;50.806;4.424;2022-08-19T04:48:55;40.92;;;24.50;;
23470;SDS011;11908;50.806;4.424;2022-08-19T04:51:21;36.53;;;23.98;;
23470;SDS011;11908;50.806;4.424;2022-08-19T04:53:48;37.90;;;24.02;;
23470;SDS011;11908;50.806;4.424;2022-08-19T04:56:14;37.67;;;25.48;;
23470;SDS011;11908;50.806;4.424;2022-08-19T04:58:43;35.03;;;23.25;;
23470;SDS011;11908;50.806;4.424;2022-08-19T05:01:12;30.30;;;21.70;;
23470;SDS011;11908;50.806;4.424;2022-08-19T05:03:39;36.40;;;22.48;;
23470;SDS011;11908;50.806;4.424;2022-08-19T05:06:08;33.42;;;24.48;;
23470;SDS011;11908;50.806;4.424;2022-08-19T05:08:36;35.10;;;21.80;;
23470;SDS011;11908;50.806;4.424;2022-08-19T05:11:12;35.92;;;22.45;;
23470;SDS011;11908;50.806;4.424;2022-08-19T05:13:39;39.35;;;23.60;;
23470;SDS011;11908;50.806;4.424;2022-08-19T05:16:06;36.22;;;23.13;;
23470;SDS011;11908;50.806;4.424;2022-08-19T05:18:31;34.90;;;22.55;;
23470;SDS011;11908;50.806;4.424;2022-08-19T05:21:17;34.45;;;21.35;;
23470;SDS011;11908;50.806;4.424;2022-08-19T05:24:03;31.35;;;21.05;;
23470;SDS011;11908;50.806;4.424;2022-08-19T05:26:33;32.17;;;20.98;;
23470;SDS011;11908;50.806;4.424;2022-08-19T05:29:03;31.50;;;20.45;;
23470;SDS011;11908;50.806;4.424;2022-08-19T05:31:29;31.20;;;20.50;;
23470;SDS011;11908;50.806;4.424;2022-08-19T05:33:55;29.10;;;19.45;;
23470;SDS011;11908;50.806;4.424;2022-08-19T05:36:23;26.40;;;18.27;;
23470;SDS011;11908;50.806;4.424;2022-08-19T05:38:53;30.95;;;19.77;;
23470;SDS011;11908;50.806;4.424;2022-08-19T05:41:19;24.95;;;16.88;;
23470;SDS011;11908;50.806;4.424;2022-08-19T05:43:48;25.95;;;16.92;;
23470;SDS011;11908;50.806;4.424;2022-08-19T05:46:17;22.98;;;16.25;;
23470;SDS011;11908;50.806;4.424;2022-08-19T05:48:44;23.42;;;15.48;;
23470;SDS011;11908;50.806;4.424;2022-08-19T05:51:09;18.55;;;15.02;;
23470;SDS011;11908;50.806;4.424;2022-08-19T05:53:36;21.48;;;14.25;;
23470;SDS011;11908;50.806;4.424;2022-08-19T05:56:05;16.20;;;12.85;;
23470;SDS011;11908;50.806;4.424;2022-08-19T05:58:33;22.08;;;12.98;;
23470;SDS011;11908;50.806;4.424;2022-08-19T06:00:59;15.35;;;11.82;;
23470;SDS011;11908;50.806;4.424;2022-08-19T06:03:29;16.50;;;12.55;;
23470;SDS011;11908;50.806;4.424;2022-08-19T06:05:58;18.75;;;13.35;;
23470;SDS011;11908;50.806;4.424;2022-08-19T06:08:25;13.98;;;10.68;;
23470;SDS011;11908;50.806;4.424;2022-08-19T06:10:52;14.30;;;10.07;;
23470;SDS011;11908;50.806;4.424;2022-08-19T06:13:18;14.60;;;9.60;;
23470;SDS011;11908;50.806;4.424;2022-08-19T06:15:44;13.38;;;8.23;;
23470;SDS011;11908;50.806;4.424;2022-08-19T06:18:11;12.15;;;7.80;;
23470;SDS011;11908;50.806;4.424;2022-08-19T06:20:38;11.52;;;8.18;;
23470;SDS011;11908;50.806;4.424;2022-08-19T06:23:04;10.50;;;7.60;;
23470;SDS011;11908;50.806;4.424;2022-08-19T06:25:30;12.90;;;7.18;;
23470;SDS011;11908;50.806;4.424;2022-08-19T06:27:56;12.60;;;7.07;;
23470;SDS011;11908;50.806;4.424;2022-08-19T06:30:22;18.42;;;8.15;;
23470;SDS011;11908;50.806;4.424;2022-08-19T06:32:48;10.52;;;6.63;;
23470;SDS011;11908;50.806;4.424;2022-08-19T06:35:13;9.40;;;6.32;;
23470;SDS011;11908;50.806;4.424;2022-08-19T06:37:39;11.65;;;6.70;;
23470;SDS011;11908;50.806;4.424;2022-08-19T06:40:05;10.18;;;6.30;;
23470;SDS011;11908;50.806;4.424;2022-08-19T06:42:33;13.35;;;6.93;;
23470;SDS011;11908;50.806;4.424;2022-08-19T06:44:59;11.57;;;5.70;;
23470;SDS011;11908;50.806;4.424;2022-08-19T06:47:28;11.52;;;6.00;;
23470;SDS011;11908;50.806;4.424;2022-08-19T06:49:57;11.02;;;5.78;;
23470;SDS011;11908;50.806;4.424;2022-08-19T06:52:26;7.43;;;5.85;;
23470;SDS011;11908;50.806;4.424;2022-08-19T06:54:52;12.25;;;5.63;;
23470;SDS011;11908;50.806;4.424;2022-08-19T06:57:19;9.98;;;5.80;;
23470;SDS011;11908;50.806;4.424;2022-08-19T06:59:45;10.80;;;5.72;;
23470;SDS011;11908;50.806;4.424;2022-08-19T07:02:10;11.63;;;6.95;;
23470;SDS011;11908;50.806;4.424;2022-08-19T07:04:37;12.75;;;6.05;;
23470;SDS011;11908;50.806;4.424;2022-08-19T07:07:08;13.25;;;6.35;;
23470;SDS011;11908;50.806;4.424;2022-08-19T07:09:37;9.50;;;6.18;;
23470;SDS011;11908;50.806;4.424;2022-08-19T07:12:05;11.05;;;5.45;;
23470;SDS011;11908;50.806;4.424;2022-08-19T07:14:33;10.23;;;6.07;;
23470;SDS011;11908;50.806;4.424;2022-08-19T07:17:02;10.77;;;5.82;;
23470;SDS011;11908;50.806;4.424;2022-08-19T07:19:30;14.23;;;6.60;;
23470;SDS011;11908;50.806;4.424;2022-08-19T07:21:57;14.88;;;6.35;;
23470;SDS011;11908;50.806;4.424;2022-08-19T07:24:24;11.32;;;6.20;;
23470;SDS011;11908;50.806;4.424;2022-08-19T07:26:52;10.88;;;5.88;;
23470;SDS011;11908;50.806;4.424;2022-08-19T07:29:19;13.40;;;5.68;;
23470;SDS011;11908;50.806;4.424;2022-08-19T07:31:47;11.40;;;5.90;;
23470;SDS011;11908;50.806;4.424;2022-08-19T07:34:15;11.27;;;6.15;;
23470;SDS011;11908;50.806;4.424;2022-08-19T07:36:41;10.32;;;5.70;;
23470;SDS011;11908;50.806;4.424;2022-08-19T07:39:10;12.38;;;6.22;;
23470;SDS011;11908;50.806;4.424;2022-08-19T07:41:38;10.30;;;5.43;;
23470;SDS011;11908;50.806;4.424;2022-08-19T07:44:05;9.60;;;5.93;;
23470;SDS011;11908;50.806;4.424;2022-08-19T07:46:32;9.02;;;4.78;;
23470;SDS011;11908;50.806;4.424;2022-08-19T07:48:59;10.55;;;5.07;;
23470;SDS011;11908;50.806;4.424;2022-08-19T07:51:26;12.55;;;4.80;;
23470;SDS011;11908;50.806;4.424;2022-08-19T07:53:52;9.85;;;5.20;;
23470;SDS011;11908;50.806;4.424;2022-08-19T07:56:18;12.98;;;4.80;;
23470;SDS011;11908;50.806;4.424;2022-08-19T07:58:46;7.57;;;4.78;;
23470;SDS011;11908;50.806;4.424;2022-08-19T08:01:17;12.20;;;5.00;;
23470;SDS011;11908;50.806;4.424;2022-08-19T08:03:47;9.77;;;5.45;;
23470;SDS011;11908;50.806;4.424;2022-08-19T08:06:32;8.52;;;4.40;;
23470;SDS011;11908;50.806;4.424;2022-08-19T08:09:18;8.30;;;4.90;;
23470;SDS011;11908;50.806;4.424;2022-08-19T08:11:51;7.65;;;5.00;;
23470;SDS011;11908;50.806;4.424;2022-08-19T08:14:23;9.13;;;4.00;;
23470;SDS011;11908;50.806;4.424;2022-08-19T08:16:51;8.27;;;4.60;;
23470;SDS011;11908;50.806;4.424;2022-08-19T08:19:18;7.95;;;3.92;;
23470;SDS011;11908;50.806;4.424;2022-08-19T08:21:45;7.15;;;4.28;;
23470;SDS011;11908;50.806;4.424;2022-08-19T08:24:12;5.78;;;3.72;;
23470;SDS011;11908;50.806;4.424;2022-08-19T08:26:38;7.40;;;3.55;;
23470;SDS011;11908;50.806;4.424;2022-08-19T08:29:04;5.95;;;3.80;;
23470;SDS011;11908;50.806;4.424;2022-08-19T08:31:32;6.88;;;3.58;;
23470;SDS011;11908;50.806;4.424;2022-08-19T08:33:58;9.38;;;3.20;;
23470;SDS011;11908;50.806;4.424;2022-08-19T08:36:24;6.75;;;3.55;;
23470;SDS011;11908;50.806;4.424;2022-08-19T08:38:50;6.22;;;3.13;;
23470;SDS011;11908;50.806;4.424;2022-08-19T08:44:27;7.13;;;2.90;;
23470;SDS011;11908;50.806;4.424;2022-08-19T08:47:17;6.20;;;3.03;;
23470;SDS011;11908;50.806;4.424;2022-08-19T08:54:47;6.68;;;2.70;;
23470;SDS011;11908;50.806;4.424;2022-08-19T08:57:17;8.18;;;3.72;;
23470;SDS011;11908;50.806;4.424;2022-08-19T08:59:48;9.02;;;3.22;;
23470;SDS011;11908;50.806;4.424;2022-08-19T09:02:19;6.53;;;3.47;;
23470;SDS011;11908;50.806;4.424;2022-08-19T09:04:45;8.32;;;3.40;;
23470;SDS011;11908;50.806;4.424;2022-08-19T09:15:57;5.55;;;3.45;;
23470;SDS011;11908;50.806;4.424;2022-08-19T09:21:12;6.35;;;3.58;;
23470;SDS011;11908;50.806;4.424;2022-08-19T09:23:38;11.82;;;3.92;;
23470;SDS011;11908;50.806;4.424;2022-08-19T09:26:14;5.18;;;3.50;;
23470;SDS011;11908;50.806;4.424;2022-08-19T09:28:43;7.53;;;3.90;;
23470;SDS011;11908;50.806;4.424;2022-08-19T09:31:10;5.40;;;3.22;;
23470;SDS011;11908;50.806;4.424;2022-08-19T09:33:37;7.00;;;3.97;;
23470;SDS011;11908;50.806;4.424;2022-08-19T09:36:07;7.75;;;3.70;;
23470;SDS011;11908;50.806;4.424;2022-08-19T09:38:35;7.97;;;3.58;;
23470;SDS011;11908;50.806;4.424;2022-08-19T09:41:05;6.68;;;3.60;;
23470;SDS011;11908;50.806;4.424;2022-08-19T09:43:32;6.40;;;3.83;;
23470;SDS011;11908;50.806;4.424;2022-08-19T09:46:04;5.47;;;3.67;;
23470;SDS011;11908;50.806;4.424;2022-08-19T09:48:32;6.18;;;3.97;;
23470;SDS011;11908;50.806;4.424;2022-08-19T09:53:30;5.32;;;4.00;;
23470;SDS011;11908;50.806;4.424;2022-08-19T09:55:56;9.68;;;4.53;;
23470;SDS011;11908;50.806;4.424;2022-08-19T09:58:21;10.23;;;4.03;;
23470;SDS011;11908;50.806;4.424;2022-08-19T10:00:52;4.57;;;3.55;;
23470;SDS011;11908;50.806;4.424;2022-08-19T10:03:22;5.78;;;3.42;;
23470;SDS011;11908;50.806;4.424;2022-08-19T10:05:48;5.78;;;3.22;;
23470;SDS011;11908;50.806;4.424;2022-08-19T10:08:21;7.03;;;3.65;;
23470;SDS011;11908;50.806;4.424;2022-08-19T10:10:50;4.72;;;3.35;;
23470;SDS011;11908;50.806;4.424;2022-08-19T10:13:17;7.28;;;3.20;;
23470;SDS011;11908;50.806;4.424;2022-08-19T10:15:47;7.53;;;3.75;;
23470;SDS011;11908;50.806;4.424;2022-08-19T10:18:15;5.90;;;3.17;;
23470;SDS011;11908;50.806;4.424;2022-08-19T10:20:45;4.32;;;2.60;;
23470;SDS011;11908;50.806;4.424;2022-08-19T10:23:15;3.60;;;3.08;;
23470;SDS011;11908;50.806;4.424;2022-08-19T10:25:41;5.70;;;3.05;;
23470;SDS011;11908;50.806;4.424;2022-08-19T10:28:08;6.05;;;3.22;;
23470;SDS011;11908;50.806;4.424;2022-08-19T10:30:36;5.80;;;3.80;;
23470;SDS011;11908;50.806;4.424;2022-08-19T10:33:02;5.88;;;3.65;;
23470;SDS011;11908;50.806;4.424;2022-08-19T10:35:28;9.00;;;4.40;;
23470;SDS011;11908;50.806;4.424;2022-08-19T10:37:54;6.55;;;4.70;;
23470;SDS011;11908;50.806;4.424;2022-08-19T10:40:24;7.13;;;4.25;;
23470;SDS011;11908;50.806;4.424;2022-08-19T10:42:51;5.20;;;3.67;;
23470;SDS011;11908;50.806;4.424;2022-08-19T10:45:17;8.52;;;4.70;;
23470;SDS011;11908;50.806;4.424;2022-08-19T10:47:43;5.47;;;4.50;;
23470;SDS011;11908;50.806;4.424;2022-08-19T10:50:09;5.13;;;4.18;;
23470;SDS011;11908;50.806;4.424;2022-08-19T10:52:53;6.75;;;4.70;;
23470;SDS011;11908;50.806;4.424;2022-08-19T10:55:20;6.90;;;4.53;;
23470;SDS011;11908;50.806;4.424;2022-08-19T10:58:10;7.05;;;4.53;;
23470;SDS011;11908;50.806;4.424;2022-08-19T11:00:37;7.38;;;5.10;;
23470;SDS011;11908;50.806;4.424;2022-08-19T11:03:02;6.05;;;5.35;;
23470;SDS011;11908;50.806;4.424;2022-08-19T11:05:28;8.63;;;5.28;;
23470;SDS011;11908;50.806;4.424;2022-08-19T11:07:55;7.90;;;5.30;;
23470;SDS011;11908;50.806;4.424;2022-08-19T11:10:21;7.70;;;4.28;;
23470;SDS011;11908;50.806;4.424;2022-08-19T11:12:48;7.22;;;4.90;;
23470;SDS011;11908;50.806;4.424;2022-08-19T11:15:17;8.48;;;6.10;;
23470;SDS011;11908;50.806;4.424;2022-08-19T11:17:43;8.90;;;6.47;;
23470;SDS011;11908;50.806;4.424;2022-08-19T11:20:10;8.05;;;5.88;;
23470;SDS011;11908;50.806;4.424;2022-08-19T11:22:37;7.57;;;5.63;;
23470;SDS011;11908;50.806;4.424;2022-08-19T11:25:03;7.22;;;6.22;;
23470;SDS011;11908;50.806;4.424;2022-08-19T11:27:29;8.82;;;6.53;;
23470;SDS011;11908;50.806;4.424;2022-08-19T11:29:55;9.93;;;6.18;;
23470;SDS011;11908;50.806;4.424;2022-08-19T11:32:21;7.40;;;6.07;;
23470;SDS011;11908;50.806;4.424;2022-08-19T11:34:46;8.80;;;6.35;;
23470;SDS011;11908;50.806;4.424;2022-08-19T11:37:12;9.27;;;6.32;;
23470;SDS011;11908;50.806;4.424;2022-08-19T11:39:38;6.90;;;6.03;;
23470;SDS011;11908;50.806;4.424;2022-08-19T11:42:04;7.03;;;5.57;;
23470;SDS011;11908;50.806;4.424;2022-08-19T11:44:51;7.22;;;5.90;;
23470;SDS011;11908;50.806;4.424;2022-08-19T11:47:17;7.13;;;6.15;;
23470;SDS011;11908;50.806;4.424;2022-08-19T11:49:43;7.65;;;6.20;;
23470;SDS011;11908;50.806;4.424;2022-08-19T11:52:10;7.78;;;5.38;;
23470;SDS011;11908;50.806;4.424;2022-08-19T11:54:35;6.68;;;5.10;;
23470;SDS011;11908;50.806;4.424;2022-08-19T11:57:02;6.30;;;5.25;;
23470;SDS011;11908;50.806;4.424;2022-08-19T11:59:28;10.27;;;4.47;;
23470;SDS011;11908;50.806;4.424;2022-08-19T12:01:54;8.15;;;5.30;;
23470;SDS011;11908;50.806;4.424;2022-08-19T12:04:21;6.65;;;4.15;;
23470;SDS011;11908;50.806;4.424;2022-08-19T12:06:48;4.65;;;4.25;;
23470;SDS011;11908;50.806;4.424;2022-08-19T12:09:15;9.50;;;4.47;;
23470;SDS011;11908;50.806;4.424;2022-08-19T12:11:42;5.20;;;3.58;;
23470;SDS011;11908;50.806;4.424;2022-08-19T12:14:10;5.85;;;3.63;;
23470;SDS011;11908;50.806;4.424;2022-08-19T12:16:38;4.70;;;3.75;;
23470;SDS011;11908;50.806;4.424;2022-08-19T12:19:04;5.75;;;2.75;;
23470;SDS011;11908;50.806;4.424;2022-08-19T12:21:31;4.25;;;2.92;;
23470;SDS011;11908;50.806;4.424;2022-08-19T12:23:59;5.10;;;2.67;;
23470;SDS011;11908;50.806;4.424;2022-08-19T12:26:27;8.45;;;2.92;;
23470;SDS011;11908;50.806;4.424;2022-08-19T12:28:54;3.13;;;2.80;;
23470;SDS011;11908;50.806;4.424;2022-08-19T12:31:20;3.67;;;3.30;;
23470;SDS011;11908;50.806;4.424;2022-08-19T12:33:46;9.48;;;2.80;;
23470;SDS011;11908;50.806;4.424;2022-08-19T12:36:12;3.83;;;2.40;;
23470;SDS011;11908;50.806;4.424;2022-08-19T12:38:40;4.00;;;2.05;;
23470;SDS011;11908;50.806;4.424;2022-08-19T12:41:09;3.47;;;2.05;;
23470;SDS011;11908;50.806;4.424;2022-08-19T12:43:37;3.67;;;1.90;;
23470;SDS011;11908;50.806;4.424;2022-08-19T12:46:04;3.47;;;1.90;;
23470;SDS011;11908;50.806;4.424;2022-08-19T12:48:33;3.85;;;1.67;;
23470;SDS011;11908;50.806;4.424;2022-08-19T12:51:00;1.88;;;1.30;;
23470;SDS011;11908;50.806;4.424;2022-08-19T12:53:26;4.00;;;1.55;;
23470;SDS011;11908;50.806;4.424;2022-08-19T12:55:57;5.28;;;1.40;;
23470;SDS011;11908;50.806;4.424;2022-08-19T12:58:24;3.05;;;1.45;;
23470;SDS011;11908;50.806;4.424;2022-08-19T13:00:51;4.07;;;1.20;;
23470;SDS011;11908;50.806;4.424;2022-08-19T13:03:16;3.17;;;1.52;;
23470;SDS011;11908;50.806;4.424;2022-08-19T13:05:42;2.78;;;1.52;;
23470;SDS011;11908;50.806;4.424;2022-08-19T13:08:08;2.30;;;1.33;;
23470;SDS011;11908;50.806;4.424;2022-08-19T13:10:34;2.60;;;1.63;;
23470;SDS011;11908;50.806;4.424;2022-08-19T13:13:07;2.95;;;1.20;;
23470;SDS011;11908;50.806;4.424;2022-08-19T13:15:35;1.88;;;1.27;;
23470;SDS011;11908;50.806;4.424;2022-08-19T13:18:04;1.60;;;1.20;;
23470;SDS011;11908;50.806;4.424;2022-08-19T13:20:30;3.05;;;1.45;;
23470;SDS011;11908;50.806;4.424;2022-08-19T13:22:56;2.85;;;1.52;;
23470;SDS011;11908;50.806;4.424;2022-08-19T13:25:22;4.88;;;1.50;;
23470;SDS011;11908;50.806;4.424;2022-08-19T13:27:48;6.60;;;1.45;;
23470;SDS011;11908;50.806;4.424;2022-08-19T13:30:15;1.45;;;1.17;;
23470;SDS011;11908;50.806;4.424;2022-08-19T13:33:01;3.75;;;1.42;;
23470;SDS011;11908;50.806;4.424;2022-08-19T13:35:35;2.25;;;1.25;;
23470;SDS011;11908;50.806;4.424;2022-08-19T13:38:02;2.90;;;1.10;;
23470;SDS011;11908;50.806;4.424;2022-08-19T13:40:29;1.95;;;1.00;;
23470;SDS011;11908;50.806;4.424;2022-08-19T13:42:58;5.55;;;1.10;;
23470;SDS011;11908;50.806;4.424;2022-08-19T13:45:26;4.00;;;1.20;;
23470;SDS011;11908;50.806;4.424;2022-08-19T13:47:54;3.20;;;1.00;;
23470;SDS011;11908;50.806;4.424;2022-08-19T13:50:23;1.90;;;1.27;;
23470;SDS011;11908;50.806;4.424;2022-08-19T13:52:51;5.60;;;1.40;;
23470;SDS011;11908;50.806;4.424;2022-08-19T13:55:18;1.90;;;1.10;;
23470;SDS011;11908;50.806;4.424;2022-08-19T13:57:44;1.92;;;1.10;;
23470;SDS011;11908;50.806;4.424;2022-08-19T14:00:14;2.53;;;1.10;;
23470;SDS011;11908;50.806;4.424;2022-08-19T14:02:45;5.32;;;1.40;;
23470;SDS011;11908;50.806;4.424;2022-08-19T14:05:14;2.08;;;0.90;;
23470;SDS011;11908;50.806;4.424;2022-08-19T14:07:41;4.07;;;1.20;;
23470;SDS011;11908;50.806;4.424;2022-08-19T14:10:07;5.90;;;0.95;;
23470;SDS011;11908;50.806;4.424;2022-08-19T14:12:35;2.50;;;1.17;;
23470;SDS011;11908;50.806;4.424;2022-08-19T14:15:01;2.17;;;0.82;;
23470;SDS011;11908;50.806;4.424;2022-08-19T14:17:28;4.38;;;1.17;;
23470;SDS011;11908;50.806;4.424;2022-08-19T14:19:58;5.00;;;1.00;;
23470;SDS011;11908;50.806;4.424;2022-08-19T14:22:36;2.28;;;1.08;;
23470;SDS011;11908;50.806;4.424;2022-08-19T14:25:05;2.28;;;1.00;;
23470;SDS011;11908;50.806;4.424;2022-08-19T14:27:33;4.70;;;1.13;;
23470;SDS011;11908;50.806;4.424;2022-08-19T14:29:59;3.03;;;0.95;;
23470;SDS011;11908;50.806;4.424;2022-08-19T14:32:26;2.17;;;1.10;;
23470;SDS011;11908;50.806;4.424;2022-08-19T14:34:52;1.98;;;0.90;;
23470;SDS011;11908;50.806;4.424;2022-08-19T14:37:19;1.50;;;0.75;;
23470;SDS011;11908;50.806;4.424;2022-08-19T14:39:45;2.97;;;1.00;;
23470;SDS011;11908;50.806;4.424;2022-08-19T14:42:11;0.55;;;0.55;;
23470;SDS011;11908;50.806;4.424;2022-08-19T14:44:39;3.55;;;1.00;;
23470;SDS011;11908;50.806;4.424;2022-08-19T14:47:05;2.85;;;0.80;;
23470;SDS011;11908;50.806;4.424;2022-08-19T14:49:32;1.83;;;0.73;;
23470;SDS011;11908;50.806;4.424;2022-08-19T14:51:58;1.20;;;1.05;;
23470;SDS011;11908;50.806;4.424;2022-08-19T14:54:24;4.18;;;1.00;;
23470;SDS011;11908;50.806;4.424;2022-08-19T14:56:50;2.92;;;1.10;;
23470;SDS011;11908;50.806;4.424;2022-08-19T14:59:15;1.70;;;0.80;;
23470;SDS011;11908;50.806;4.424;2022-08-19T15:01:41;0.90;;;0.75;;
23470;SDS011;11908;50.806;4.424;2022-08-19T15:04:07;1.27;;;0.77;;